sensor_id;sensor_type;location;lat;lon;timestamp;P1;durP1;ratioP1;P2;durP2;ratioP2
78610;SDS011;67932;50.474;4.436;2023-04-25T00:00:00;14.20;;;6.13;;
78610;SDS011;67932;50.474;4.436;2023-04-25T00:02:26;12.77;;;6.43;;
78610;SDS011;67932;50.474;4.436;2023-04-25T00:04:53;15.40;;;5.80;;
78610;SDS011;67932;50.474;4.436;2023-04-25T00:07:23;13.23;;;6.15;;
78610;SDS011;67932;50.474;4.436;2023-04-25T00:09:50;14.10;;;5.80;;
78610;SDS011;67932;50.474;4.436;2023-04-25T00:12:16;15.35;;;5.45;;
78610;SDS011;67932;50.474;4.436;2023-04-25T00:14:42;10.73;;;5.22;;
78610;SDS011;67932;50.474;4.436;2023-04-25T00:17:10;10.85;;;5.10;;
78610;SDS011;67932;50.474;4.436;2023-04-25T00:19:36;10.90;;;5.20;;
78610;SDS011;67932;50.474;4.436;2023-04-25T00:22:03;10.65;;;4.72;;
78610;SDS011;67932;50.474;4.436;2023-04-25T00:24:30;9.43;;;4.97;;
78610;SDS011;67932;50.474;4.436;2023-04-25T00:26:56;10.18;;;5.05;;
78610;SDS011;67932;50.474;4.436;2023-04-25T00:29:22;10.05;;;4.22;;
78610;SDS011;67932;50.474;4.436;2023-04-25T00:31:48;8.85;;;4.35;;
78610;SDS011;67932;50.474;4.436;2023-04-25T00:34:14;8.55;;;3.70;;
78610;SDS011;67932;50.474;4.436;2023-04-25T00:36:40;12.20;;;4.07;;
78610;SDS011;67932;50.474;4.436;2023-04-25T00:39:07;8.82;;;3.80;;
78610;SDS011;67932;50.474;4.436;2023-04-25T00:41:33;11.05;;;4.32;;
78610;SDS011;67932;50.474;4.436;2023-04-25T00:43:59;12.23;;;4.07;;
78610;SDS011;67932;50.474;4.436;2023-04-25T00:46:26;11.65;;;4.18;;
78610;SDS011;67932;50.474;4.436;2023-04-25T00:48:52;11.52;;;4.05;;
78610;SDS011;67932;50.474;4.436;2023-04-25T00:51:19;10.05;;;4.10;;
78610;SDS011;67932;50.474;4.436;2023-04-25T00:53:45;15.32;;;4.85;;
78610;SDS011;67932;50.474;4.436;2023-04-25T00:56:12;10.20;;;4.10;;
78610;SDS011;67932;50.474;4.436;2023-04-25T00:58:38;12.68;;;4.43;;
78610;SDS011;67932;50.474;4.436;2023-04-25T01:01:04;12.82;;;3.92;;
78610;SDS011;67932;50.474;4.436;2023-04-25T01:03:32;10.13;;;4.75;;
78610;SDS011;67932;50.474;4.436;2023-04-25T01:06:00;14.18;;;4.80;;
78610;SDS011;67932;50.474;4.436;2023-04-25T01:08:27;8.15;;;3.38;;
78610;SDS011;67932;50.474;4.436;2023-04-25T01:10:53;9.27;;;3.42;;
78610;SDS011;67932;50.474;4.436;2023-04-25T01:13:19;10.02;;;3.80;;
78610;SDS011;67932;50.474;4.436;2023-04-25T01:15:45;9.60;;;3.83;;
78610;SDS011;67932;50.474;4.436;2023-04-25T01:18:12;9.38;;;3.30;;
78610;SDS011;67932;50.474;4.436;2023-04-25T01:20:38;13.43;;;4.03;;
78610;SDS011;67932;50.474;4.436;2023-04-25T01:23:04;11.88;;;4.20;;
78610;SDS011;67932;50.474;4.436;2023-04-25T01:25:30;10.77;;;3.35;;
78610;SDS011;67932;50.474;4.436;2023-04-25T01:27:57;7.30;;;3.30;;
78610;SDS011;67932;50.474;4.436;2023-04-25T01:30:25;9.23;;;4.53;;
78610;SDS011;67932;50.474;4.436;2023-04-25T01:32:52;7.97;;;3.50;;
78610;SDS011;67932;50.474;4.436;2023-04-25T01:35:19;9.68;;;3.67;;
78610;SDS011;67932;50.474;4.436;2023-04-25T01:37:47;7.45;;;3.28;;
78610;SDS011;67932;50.474;4.436;2023-04-25T01:40:14;11.02;;;3.85;;
78610;SDS011;67932;50.474;4.436;2023-04-25T01:42:41;12.50;;;4.00;;
78610;SDS011;67932;50.474;4.436;2023-04-25T01:45:08;7.45;;;3.17;;
78610;SDS011;67932;50.474;4.436;2023-04-25T01:47:34;19.95;;;4.15;;
78610;SDS011;67932;50.474;4.436;2023-04-25T01:50:01;13.80;;;4.40;;
78610;SDS011;67932;50.474;4.436;2023-04-25T01:52:27;12.05;;;3.95;;
78610;SDS011;67932;50.474;4.436;2023-04-25T01:54:54;7.13;;;3.33;;
78610;SDS011;67932;50.474;4.436;2023-04-25T01:57:20;12.27;;;3.40;;
78610;SDS011;67932;50.474;4.436;2023-04-25T01:59:46;12.85;;;3.78;;
78610;SDS011;67932;50.474;4.436;2023-04-25T02:02:12;14.77;;;3.60;;
78610;SDS011;67932;50.474;4.436;2023-04-25T02:04:40;10.63;;;2.95;;
78610;SDS011;67932;50.474;4.436;2023-04-25T02:07:06;11.38;;;3.40;;
78610;SDS011;67932;50.474;4.436;2023-04-25T02:09:32;10.48;;;3.00;;
78610;SDS011;67932;50.474;4.436;2023-04-25T02:11:58;11.02;;;3.15;;
78610;SDS011;67932;50.474;4.436;2023-04-25T02:14:24;15.05;;;3.70;;
78610;SDS011;67932;50.474;4.436;2023-04-25T02:16:50;9.85;;;3.78;;
78610;SDS011;67932;50.474;4.436;2023-04-25T02:19:16;10.07;;;3.33;;
78610;SDS011;67932;50.474;4.436;2023-04-25T02:21:42;12.00;;;3.20;;
78610;SDS011;67932;50.474;4.436;2023-04-25T02:24:09;11.50;;;3.75;;
78610;SDS011;67932;50.474;4.436;2023-04-25T02:26:35;13.32;;;4.10;;
78610;SDS011;67932;50.474;4.436;2023-04-25T02:29:01;11.10;;;3.88;;
78610;SDS011;67932;50.474;4.436;2023-04-25T02:31:27;14.82;;;3.38;;
78610;SDS011;67932;50.474;4.436;2023-04-25T02:33:53;9.25;;;3.58;;
78610;SDS011;67932;50.474;4.436;2023-04-25T02:36:19;12.70;;;3.78;;
78610;SDS011;67932;50.474;4.436;2023-04-25T02:38:45;11.23;;;2.95;;
78610;SDS011;67932;50.474;4.436;2023-04-25T02:41:11;10.13;;;3.13;;
78610;SDS011;67932;50.474;4.436;2023-04-25T02:43:37;9.82;;;3.28;;
78610;SDS011;67932;50.474;4.436;2023-04-25T02:46:04;15.30;;;3.03;;
78610;SDS011;67932;50.474;4.436;2023-04-25T02:48:30;10.68;;;3.30;;
78610;SDS011;67932;50.474;4.436;2023-04-25T02:50:56;10.02;;;3.30;;
78610;SDS011;67932;50.474;4.436;2023-04-25T02:53:22;9.95;;;3.72;;
78610;SDS011;67932;50.474;4.436;2023-04-25T02:55:48;9.98;;;3.78;;
78610;SDS011;67932;50.474;4.436;2023-04-25T02:58:14;12.68;;;3.50;;
78610;SDS011;67932;50.474;4.436;2023-04-25T03:00:40;8.82;;;4.03;;
78610;SDS011;67932;50.474;4.436;2023-04-25T03:03:06;14.55;;;4.35;;
78610;SDS011;67932;50.474;4.436;2023-04-25T03:05:32;10.40;;;3.67;;
78610;SDS011;67932;50.474;4.436;2023-04-25T03:07:58;9.55;;;3.28;;
78610;SDS011;67932;50.474;4.436;2023-04-25T03:10:24;14.95;;;3.17;;
78610;SDS011;67932;50.474;4.436;2023-04-25T03:12:50;11.43;;;2.72;;
78610;SDS011;67932;50.474;4.436;2023-04-25T03:15:17;13.23;;;3.58;;
78610;SDS011;67932;50.474;4.436;2023-04-25T03:17:43;7.35;;;3.22;;
78610;SDS011;67932;50.474;4.436;2023-04-25T03:20:10;10.05;;;3.15;;
78610;SDS011;67932;50.474;4.436;2023-04-25T03:22:36;7.50;;;3.53;;
78610;SDS011;67932;50.474;4.436;2023-04-25T03:25:03;8.38;;;3.15;;
78610;SDS011;67932;50.474;4.436;2023-04-25T03:27:29;11.02;;;2.97;;
78610;SDS011;67932;50.474;4.436;2023-04-25T03:29:55;10.48;;;3.10;;
78610;SDS011;67932;50.474;4.436;2023-04-25T03:32:21;12.18;;;3.30;;
78610;SDS011;67932;50.474;4.436;2023-04-25T03:34:47;13.57;;;3.58;;
78610;SDS011;67932;50.474;4.436;2023-04-25T03:37:14;16.42;;;3.50;;
78610;SDS011;67932;50.474;4.436;2023-04-25T03:39:40;13.90;;;3.22;;
78610;SDS011;67932;50.474;4.436;2023-04-25T03:42:06;12.52;;;3.53;;
78610;SDS011;67932;50.474;4.436;2023-04-25T03:44:32;10.82;;;3.47;;
78610;SDS011;67932;50.474;4.436;2023-04-25T03:46:58;15.73;;;3.63;;
78610;SDS011;67932;50.474;4.436;2023-04-25T03:49:24;14.68;;;4.07;;
78610;SDS011;67932;50.474;4.436;2023-04-25T03:51:50;12.05;;;4.28;;
78610;SDS011;67932;50.474;4.436;2023-04-25T03:54:16;12.18;;;3.75;;
78610;SDS011;67932;50.474;4.436;2023-04-25T03:56:42;14.05;;;4.07;;
78610;SDS011;67932;50.474;4.436;2023-04-25T03:59:09;14.48;;;5.00;;
78610;SDS011;67932;50.474;4.436;2023-04-25T04:01:35;13.25;;;3.75;;
78610;SDS011;67932;50.474;4.436;2023-04-25T04:04:01;7.68;;;3.80;;
78610;SDS011;67932;50.474;4.436;2023-04-25T04:06:27;13.23;;;4.07;;
78610;SDS011;67932;50.474;4.436;2023-04-25T04:08:53;9.65;;;3.63;;
78610;SDS011;67932;50.474;4.436;2023-04-25T04:11:20;11.02;;;4.28;;
78610;SDS011;67932;50.474;4.436;2023-04-25T04:13:46;15.15;;;3.95;;
78610;SDS011;67932;50.474;4.436;2023-04-25T04:16:12;10.82;;;3.92;;
78610;SDS011;67932;50.474;4.436;2023-04-25T04:18:38;10.85;;;3.63;;
78610;SDS011;67932;50.474;4.436;2023-04-25T04:21:04;10.60;;;3.58;;
78610;SDS011;67932;50.474;4.436;2023-04-25T04:23:30;18.10;;;4.75;;
78610;SDS011;67932;50.474;4.436;2023-04-25T04:25:56;12.73;;;4.45;;
78610;SDS011;67932;50.474;4.436;2023-04-25T04:28:23;12.15;;;3.85;;
78610;SDS011;67932;50.474;4.436;2023-04-25T04:30:50;12.57;;;4.00;;
78610;SDS011;67932;50.474;4.436;2023-04-25T04:33:17;14.02;;;4.95;;
78610;SDS011;67932;50.474;4.436;2023-04-25T04:35:48;19.08;;;5.25;;
78610;SDS011;67932;50.474;4.436;2023-04-25T04:38:17;11.80;;;4.50;;
78610;SDS011;67932;50.474;4.436;2023-04-25T04:40:44;14.98;;;4.90;;
78610;SDS011;67932;50.474;4.436;2023-04-25T04:43:11;13.13;;;4.53;;
78610;SDS011;67932;50.474;4.436;2023-04-25T04:45:37;15.95;;;4.80;;
78610;SDS011;67932;50.474;4.436;2023-04-25T04:48:05;13.25;;;4.55;;
78610;SDS011;67932;50.474;4.436;2023-04-25T04:50:32;10.63;;;4.25;;
78610;SDS011;67932;50.474;4.436;2023-04-25T04:52:58;15.07;;;4.70;;
78610;SDS011;67932;50.474;4.436;2023-04-25T04:55:25;11.60;;;4.28;;
78610;SDS011;67932;50.474;4.436;2023-04-25T04:57:51;13.20;;;4.63;;
78610;SDS011;67932;50.474;4.436;2023-04-25T05:00:17;13.32;;;5.07;;
78610;SDS011;67932;50.474;4.436;2023-04-25T05:02:43;11.95;;;4.55;;
78610;SDS011;67932;50.474;4.436;2023-04-25T05:05:09;16.38;;;6.13;;
78610;SDS011;67932;50.474;4.436;2023-04-25T05:07:35;9.13;;;4.32;;
78610;SDS011;67932;50.474;4.436;2023-04-25T05:10:01;11.25;;;5.18;;
78610;SDS011;67932;50.474;4.436;2023-04-25T05:12:28;12.55;;;4.68;;
78610;SDS011;67932;50.474;4.436;2023-04-25T05:14:55;10.35;;;4.55;;
78610;SDS011;67932;50.474;4.436;2023-04-25T05:17:21;13.90;;;4.70;;
78610;SDS011;67932;50.474;4.436;2023-04-25T05:19:47;13.60;;;5.00;;
78610;SDS011;67932;50.474;4.436;2023-04-25T05:22:13;15.10;;;4.90;;
78610;SDS011;67932;50.474;4.436;2023-04-25T05:24:39;11.77;;;4.15;;
78610;SDS011;67932;50.474;4.436;2023-04-25T05:27:05;12.88;;;4.57;;
78610;SDS011;67932;50.474;4.436;2023-04-25T05:29:31;13.93;;;4.25;;
78610;SDS011;67932;50.474;4.436;2023-04-25T05:31:58;12.68;;;4.82;;
78610;SDS011;67932;50.474;4.436;2023-04-25T05:34:25;10.38;;;4.18;;
78610;SDS011;67932;50.474;4.436;2023-04-25T05:36:51;11.93;;;4.60;;
78610;SDS011;67932;50.474;4.436;2023-04-25T05:39:17;12.50;;;4.45;;
78610;SDS011;67932;50.474;4.436;2023-04-25T05:41:43;14.27;;;4.05;;
78610;SDS011;67932;50.474;4.436;2023-04-25T05:44:09;16.00;;;4.88;;
78610;SDS011;67932;50.474;4.436;2023-04-25T05:46:35;17.42;;;5.22;;
78610;SDS011;67932;50.474;4.436;2023-04-25T05:49:01;13.80;;;4.50;;
78610;SDS011;67932;50.474;4.436;2023-04-25T05:51:27;19.25;;;5.20;;
78610;SDS011;67932;50.474;4.436;2023-04-25T05:53:54;14.20;;;4.53;;
78610;SDS011;67932;50.474;4.436;2023-04-25T05:56:23;13.45;;;4.78;;
78610;SDS011;67932;50.474;4.436;2023-04-25T05:58:49;15.98;;;5.38;;
78610;SDS011;67932;50.474;4.436;2023-04-25T06:01:15;11.77;;;3.88;;
78610;SDS011;67932;50.474;4.436;2023-04-25T06:03:41;13.18;;;4.55;;
78610;SDS011;67932;50.474;4.436;2023-04-25T06:06:08;9.77;;;4.72;;
78610;SDS011;67932;50.474;4.436;2023-04-25T06:08:35;13.27;;;4.05;;
78610;SDS011;67932;50.474;4.436;2023-04-25T06:11:05;13.95;;;4.45;;
78610;SDS011;67932;50.474;4.436;2023-04-25T06:13:31;13.98;;;3.58;;
78610;SDS011;67932;50.474;4.436;2023-04-25T06:15:57;13.63;;;4.43;;
78610;SDS011;67932;50.474;4.436;2023-04-25T06:18:24;17.13;;;4.57;;
78610;SDS011;67932;50.474;4.436;2023-04-25T06:20:50;13.52;;;4.80;;
78610;SDS011;67932;50.474;4.436;2023-04-25T06:23:16;11.48;;;3.88;;
78610;SDS011;67932;50.474;4.436;2023-04-25T06:25:42;10.45;;;4.10;;
78610;SDS011;67932;50.474;4.436;2023-04-25T06:28:08;11.50;;;3.70;;
78610;SDS011;67932;50.474;4.436;2023-04-25T06:30:34;14.82;;;4.38;;
78610;SDS011;67932;50.474;4.436;2023-04-25T06:33:00;7.30;;;3.45;;
78610;SDS011;67932;50.474;4.436;2023-04-25T06:35:26;9.88;;;3.80;;
78610;SDS011;67932;50.474;4.436;2023-04-25T06:37:52;13.63;;;4.40;;
78610;SDS011;67932;50.474;4.436;2023-04-25T06:40:18;12.10;;;4.28;;
78610;SDS011;67932;50.474;4.436;2023-04-25T06:42:45;11.68;;;4.10;;
78610;SDS011;67932;50.474;4.436;2023-04-25T06:45:11;9.00;;;3.72;;
78610;SDS011;67932;50.474;4.436;2023-04-25T06:47:37;14.75;;;3.90;;
78610;SDS011;67932;50.474;4.436;2023-04-25T06:50:13;10.23;;;4.30;;
78610;SDS011;67932;50.474;4.436;2023-04-25T06:52:43;13.70;;;4.22;;
78610;SDS011;67932;50.474;4.436;2023-04-25T06:55:09;12.10;;;3.97;;
78610;SDS011;67932;50.474;4.436;2023-04-25T06:57:35;10.68;;;4.03;;
78610;SDS011;67932;50.474;4.436;2023-04-25T07:00:05;14.50;;;3.55;;
78610;SDS011;67932;50.474;4.436;2023-04-25T07:02:34;7.95;;;3.05;;
78610;SDS011;67932;50.474;4.436;2023-04-25T07:05:01;8.32;;;3.47;;
78610;SDS011;67932;50.474;4.436;2023-04-25T07:07:29;12.82;;;4.30;;
78610;SDS011;67932;50.474;4.436;2023-04-25T07:09:55;10.70;;;3.72;;
78610;SDS011;67932;50.474;4.436;2023-04-25T07:12:22;7.85;;;3.50;;
78610;SDS011;67932;50.474;4.436;2023-04-25T07:14:48;9.60;;;3.25;;
78610;SDS011;67932;50.474;4.436;2023-04-25T07:17:14;8.10;;;3.35;;
78610;SDS011;67932;50.474;4.436;2023-04-25T07:19:40;9.70;;;3.70;;
78610;SDS011;67932;50.474;4.436;2023-04-25T07:22:07;9.20;;;2.90;;
78610;SDS011;67932;50.474;4.436;2023-04-25T07:24:33;10.77;;;3.70;;
78610;SDS011;67932;50.474;4.436;2023-04-25T07:26:59;8.75;;;3.20;;
78610;SDS011;67932;50.474;4.436;2023-04-25T07:29:26;10.98;;;3.38;;
78610;SDS011;67932;50.474;4.436;2023-04-25T07:31:52;12.52;;;3.55;;
78610;SDS011;67932;50.474;4.436;2023-04-25T07:34:19;8.82;;;3.00;;
78610;SDS011;67932;50.474;4.436;2023-04-25T07:36:45;11.43;;;2.95;;
78610;SDS011;67932;50.474;4.436;2023-04-25T07:39:12;10.10;;;3.22;;
78610;SDS011;67932;50.474;4.436;2023-04-25T07:41:38;9.65;;;2.95;;
78610;SDS011;67932;50.474;4.436;2023-04-25T07:44:04;8.75;;;3.17;;
78610;SDS011;67932;50.474;4.436;2023-04-25T07:46:30;12.65;;;3.70;;
78610;SDS011;67932;50.474;4.436;2023-04-25T07:48:56;7.55;;;2.55;;
78610;SDS011;67932;50.474;4.436;2023-04-25T07:51:22;10.10;;;2.78;;
78610;SDS011;67932;50.474;4.436;2023-04-25T07:53:48;11.15;;;2.65;;
78610;SDS011;67932;50.474;4.436;2023-04-25T07:56:14;6.93;;;3.08;;
78610;SDS011;67932;50.474;4.436;2023-04-25T07:58:40;8.70;;;2.63;;
78610;SDS011;67932;50.474;4.436;2023-04-25T08:01:06;8.85;;;2.88;;
78610;SDS011;67932;50.474;4.436;2023-04-25T08:09:40;8.15;;;2.75;;
78610;SDS011;67932;50.474;4.436;2023-04-25T08:12:06;6.60;;;2.38;;
78610;SDS011;67932;50.474;4.436;2023-04-25T08:14:32;7.53;;;2.10;;
78610;SDS011;67932;50.474;4.436;2023-04-25T08:17:01;10.18;;;2.90;;
78610;SDS011;67932;50.474;4.436;2023-04-25T08:19:28;8.50;;;3.20;;
78610;SDS011;67932;50.474;4.436;2023-04-25T08:21:54;13.27;;;3.35;;
78610;SDS011;67932;50.474;4.436;2023-04-25T08:24:21;9.27;;;2.92;;
78610;SDS011;67932;50.474;4.436;2023-04-25T08:26:47;7.13;;;3.42;;
78610;SDS011;67932;50.474;4.436;2023-04-25T08:29:14;8.60;;;2.75;;
78610;SDS011;67932;50.474;4.436;2023-04-25T08:31:40;9.02;;;3.03;;
78610;SDS011;67932;50.474;4.436;2023-04-25T08:34:06;12.07;;;2.97;;
78610;SDS011;67932;50.474;4.436;2023-04-25T08:36:32;11.63;;;3.30;;
78610;SDS011;67932;50.474;4.436;2023-04-25T08:38:58;11.90;;;3.72;;
78610;SDS011;67932;50.474;4.436;2023-04-25T08:41:25;13.40;;;4.00;;
78610;SDS011;67932;50.474;4.436;2023-04-25T08:43:51;7.43;;;3.30;;
78610;SDS011;67932;50.474;4.436;2023-04-25T08:46:19;10.60;;;3.42;;
78610;SDS011;67932;50.474;4.436;2023-04-25T08:48:45;14.32;;;4.30;;
78610;SDS011;67932;50.474;4.436;2023-04-25T08:51:21;8.20;;;3.10;;
78610;SDS011;67932;50.474;4.436;2023-04-25T08:53:51;12.05;;;4.03;;
78610;SDS011;67932;50.474;4.436;2023-04-25T08:56:17;8.27;;;3.80;;
78610;SDS011;67932;50.474;4.436;2023-04-25T08:58:47;7.70;;;3.60;;
78610;SDS011;67932;50.474;4.436;2023-04-25T09:01:15;10.70;;;4.43;;
78610;SDS011;67932;50.474;4.436;2023-04-25T09:03:42;8.68;;;4.65;;
78610;SDS011;67932;50.474;4.436;2023-04-25T09:06:09;11.48;;;4.18;;
78610;SDS011;67932;50.474;4.436;2023-04-25T09:08:37;12.60;;;4.78;;
78610;SDS011;67932;50.474;4.436;2023-04-25T09:11:05;11.20;;;3.97;;
78610;SDS011;67932;50.474;4.436;2023-04-25T09:13:31;11.65;;;3.00;;
78610;SDS011;67932;50.474;4.436;2023-04-25T09:15:57;10.25;;;2.95;;
78610;SDS011;67932;50.474;4.436;2023-04-25T09:20:53;7.95;;;3.10;;
78610;SDS011;67932;50.474;4.436;2023-04-25T09:23:20;11.40;;;2.88;;
78610;SDS011;67932;50.474;4.436;2023-04-25T09:25:50;5.30;;;2.70;;
78610;SDS011;67932;50.474;4.436;2023-04-25T09:28:19;7.97;;;2.67;;
78610;SDS011;67932;50.474;4.436;2023-04-25T09:30:49;10.00;;;2.75;;
78610;SDS011;67932;50.474;4.436;2023-04-25T09:33:15;6.13;;;2.42;;
78610;SDS011;67932;50.474;4.436;2023-04-25T09:36:01;12.80;;;3.10;;
78610;SDS011;67932;50.474;4.436;2023-04-25T09:38:27;7.95;;;2.42;;
78610;SDS011;67932;50.474;4.436;2023-04-25T09:40:58;6.57;;;2.28;;
78610;SDS011;67932;50.474;4.436;2023-04-25T09:43:25;4.72;;;2.08;;
78610;SDS011;67932;50.474;4.436;2023-04-25T09:45:53;10.10;;;2.33;;
78610;SDS011;67932;50.474;4.436;2023-04-25T09:48:22;8.98;;;2.40;;
78610;SDS011;67932;50.474;4.436;2023-04-25T09:51:07;6.32;;;2.15;;
78610;SDS011;67932;50.474;4.436;2023-04-25T09:53:36;6.82;;;2.28;;
78610;SDS011;67932;50.474;4.436;2023-04-25T09:56:06;7.43;;;2.80;;
78610;SDS011;67932;50.474;4.436;2023-04-25T09:58:32;7.20;;;2.20;;
78610;SDS011;67932;50.474;4.436;2023-04-25T10:01:00;7.07;;;2.50;;
78610;SDS011;67932;50.474;4.436;2023-04-25T10:03:26;4.88;;;1.83;;
78610;SDS011;67932;50.474;4.436;2023-04-25T10:05:56;6.93;;;2.08;;
78610;SDS011;67932;50.474;4.436;2023-04-25T10:08:24;4.07;;;1.75;;
78610;SDS011;67932;50.474;4.436;2023-04-25T10:10:51;8.02;;;1.83;;
78610;SDS011;67932;50.474;4.436;2023-04-25T10:13:17;7.50;;;2.10;;
78610;SDS011;67932;50.474;4.436;2023-04-25T10:15:44;5.65;;;2.33;;
78610;SDS011;67932;50.474;4.436;2023-04-25T10:18:11;6.93;;;1.80;;
78610;SDS011;67932;50.474;4.436;2023-04-25T10:20:39;9.73;;;2.00;;
78610;SDS011;67932;50.474;4.436;2023-04-25T10:23:11;7.97;;;1.92;;
78610;SDS011;67932;50.474;4.436;2023-04-25T10:25:38;9.20;;;2.78;;
78610;SDS011;67932;50.474;4.436;2023-04-25T10:28:05;4.15;;;1.70;;
78610;SDS011;67932;50.474;4.436;2023-04-25T10:30:31;4.72;;;1.60;;
78610;SDS011;67932;50.474;4.436;2023-04-25T10:32:58;6.78;;;2.00;;
78610;SDS011;67932;50.474;4.436;2023-04-25T10:35:29;3.88;;;1.50;;
78610;SDS011;67932;50.474;4.436;2023-04-25T10:37:57;5.38;;;1.48;;
78610;SDS011;67932;50.474;4.436;2023-04-25T10:40:23;6.00;;;1.95;;
78610;SDS011;67932;50.474;4.436;2023-04-25T10:42:51;2.35;;;1.30;;
78610;SDS011;67932;50.474;4.436;2023-04-25T10:45:19;6.63;;;1.80;;
78610;SDS011;67932;50.474;4.436;2023-04-25T10:48:24;6.30;;;1.73;;
78610;SDS011;67932;50.474;4.436;2023-04-25T10:50:53;3.45;;;1.27;;
78610;SDS011;67932;50.474;4.436;2023-04-25T10:53:33;4.35;;;2.03;;
78610;SDS011;67932;50.474;4.436;2023-04-25T10:55:59;6.65;;;1.83;;
78610;SDS011;67932;50.474;4.436;2023-04-25T10:58:25;4.53;;;1.75;;
78610;SDS011;67932;50.474;4.436;2023-04-25T11:00:52;8.27;;;1.80;;
78610;SDS011;67932;50.474;4.436;2023-04-25T11:03:20;6.85;;;3.08;;
78610;SDS011;67932;50.474;4.436;2023-04-25T11:05:48;4.35;;;1.50;;
78610;SDS011;67932;50.474;4.436;2023-04-25T11:08:15;6.15;;;2.03;;
78610;SDS011;67932;50.474;4.436;2023-04-25T11:10:48;5.50;;;1.77;;
78610;SDS011;67932;50.474;4.436;2023-04-25T11:13:14;5.63;;;2.45;;
78610;SDS011;67932;50.474;4.436;2023-04-25T11:15:40;11.13;;;2.10;;
78610;SDS011;67932;50.474;4.436;2023-04-25T11:18:06;5.50;;;1.60;;
78610;SDS011;67932;50.474;4.436;2023-04-25T11:20:32;4.85;;;1.90;;
78610;SDS011;67932;50.474;4.436;2023-04-25T11:22:58;5.20;;;1.85;;
78610;SDS011;67932;50.474;4.436;2023-04-25T11:25:25;5.80;;;2.10;;
78610;SDS011;67932;50.474;4.436;2023-04-25T11:27:55;5.43;;;1.98;;
78610;SDS011;67932;50.474;4.436;2023-04-25T11:30:22;7.05;;;2.13;;
78610;SDS011;67932;50.474;4.436;2023-04-25T11:32:48;6.10;;;1.88;;
78610;SDS011;67932;50.474;4.436;2023-04-25T11:35:17;5.28;;;2.50;;
78610;SDS011;67932;50.474;4.436;2023-04-25T11:37:43;4.78;;;1.60;;
78610;SDS011;67932;50.474;4.436;2023-04-25T11:40:10;4.35;;;1.58;;
78610;SDS011;67932;50.474;4.436;2023-04-25T11:42:37;4.40;;;1.40;;
78610;SDS011;67932;50.474;4.436;2023-04-25T11:45:05;3.38;;;1.08;;
78610;SDS011;67932;50.474;4.436;2023-04-25T11:47:31;4.72;;;1.40;;
78610;SDS011;67932;50.474;4.436;2023-04-25T11:49:58;3.42;;;1.20;;
78610;SDS011;67932;50.474;4.436;2023-04-25T11:52:34;7.43;;;1.90;;
78610;SDS011;67932;50.474;4.436;2023-04-25T11:55:00;2.90;;;1.52;;
78610;SDS011;67932;50.474;4.436;2023-04-25T11:57:26;7.00;;;2.15;;
78610;SDS011;67932;50.474;4.436;2023-04-25T11:59:53;3.22;;;1.52;;
78610;SDS011;67932;50.474;4.436;2023-04-25T12:02:25;3.35;;;1.42;;
78610;SDS011;67932;50.474;4.436;2023-04-25T12:04:51;3.90;;;1.10;;
78610;SDS011;67932;50.474;4.436;2023-04-25T12:07:18;4.35;;;1.45;;
78610;SDS011;67932;50.474;4.436;2023-04-25T12:09:50;3.30;;;1.23;;
78610;SDS011;67932;50.474;4.436;2023-04-25T12:12:18;6.15;;;1.20;;
78610;SDS011;67932;50.474;4.436;2023-04-25T12:14:46;3.55;;;1.23;;
78610;SDS011;67932;50.474;4.436;2023-04-25T12:17:16;5.28;;;1.20;;
78610;SDS011;67932;50.474;4.436;2023-04-25T12:19:42;4.70;;;2.08;;
78610;SDS011;67932;50.474;4.436;2023-04-25T12:22:22;5.60;;;1.63;;
78610;SDS011;67932;50.474;4.436;2023-04-25T12:24:48;4.32;;;1.40;;
78610;SDS011;67932;50.474;4.436;2023-04-25T12:27:15;10.80;;;1.70;;
78610;SDS011;67932;50.474;4.436;2023-04-25T12:29:50;5.20;;;1.50;;
78610;SDS011;67932;50.474;4.436;2023-04-25T12:32:16;3.10;;;1.30;;
78610;SDS011;67932;50.474;4.436;2023-04-25T12:34:43;7.60;;;1.30;;
78610;SDS011;67932;50.474;4.436;2023-04-25T12:37:10;2.95;;;1.48;;
78610;SDS011;67932;50.474;4.436;2023-04-25T12:39:36;5.20;;;1.20;;
78610;SDS011;67932;50.474;4.436;2023-04-25T12:42:03;6.13;;;1.52;;
78610;SDS011;67932;50.474;4.436;2023-04-25T12:44:29;3.42;;;1.15;;
78610;SDS011;67932;50.474;4.436;2023-04-25T12:46:55;2.88;;;1.00;;
78610;SDS011;67932;50.474;4.436;2023-04-25T12:49:21;4.20;;;1.45;;
78610;SDS011;67932;50.474;4.436;2023-04-25T12:51:48;3.33;;;1.08;;
78610;SDS011;67932;50.474;4.436;2023-04-25T12:54:14;3.30;;;1.30;;
78610;SDS011;67932;50.474;4.436;2023-04-25T12:56:40;3.83;;;1.20;;
78610;SDS011;67932;50.474;4.436;2023-04-25T12:59:07;4.10;;;1.50;;
78610;SDS011;67932;50.474;4.436;2023-04-25T13:01:34;4.45;;;1.55;;
78610;SDS011;67932;50.474;4.436;2023-04-25T13:04:00;3.92;;;1.25;;
78610;SDS011;67932;50.474;4.436;2023-04-25T13:06:27;3.88;;;1.08;;
78610;SDS011;67932;50.474;4.436;2023-04-25T13:08:54;2.55;;;1.10;;
78610;SDS011;67932;50.474;4.436;2023-04-25T13:11:21;4.22;;;1.25;;
78610;SDS011;67932;50.474;4.436;2023-04-25T13:13:47;2.08;;;1.20;;
78610;SDS011;67932;50.474;4.436;2023-04-25T13:16:13;6.28;;;1.60;;
78610;SDS011;67932;50.474;4.436;2023-04-25T13:18:39;4.05;;;1.65;;
78610;SDS011;67932;50.474;4.436;2023-04-25T13:27:16;4.80;;;1.85;;
78610;SDS011;67932;50.474;4.436;2023-04-25T13:29:42;4.70;;;1.70;;
78610;SDS011;67932;50.474;4.436;2023-04-25T13:32:11;3.08;;;1.30;;
78610;SDS011;67932;50.474;4.436;2023-04-25T13:34:37;5.47;;;2.35;;
78610;SDS011;67932;50.474;4.436;2023-04-25T13:37:03;3.03;;;1.60;;
78610;SDS011;67932;50.474;4.436;2023-04-25T13:39:30;2.13;;;1.17;;
78610;SDS011;67932;50.474;4.436;2023-04-25T13:41:56;4.70;;;1.55;;
78610;SDS011;67932;50.474;4.436;2023-04-25T13:44:22;4.53;;;1.50;;
78610;SDS011;67932;50.474;4.436;2023-04-25T13:46:48;4.47;;;1.50;;
78610;SDS011;67932;50.474;4.436;2023-04-25T13:49:14;4.60;;;1.45;;
78610;SDS011;67932;50.474;4.436;2023-04-25T13:51:40;5.68;;;1.85;;
78610;SDS011;67932;50.474;4.436;2023-04-25T13:54:07;2.13;;;1.00;;
78610;SDS011;67932;50.474;4.436;2023-04-25T13:56:33;4.60;;;1.60;;
78610;SDS011;67932;50.474;4.436;2023-04-25T13:59:01;2.22;;;1.02;;
78610;SDS011;67932;50.474;4.436;2023-04-25T14:01:27;2.83;;;1.17;;
78610;SDS011;67932;50.474;4.436;2023-04-25T14:03:56;3.03;;;1.23;;
78610;SDS011;67932;50.474;4.436;2023-04-25T14:06:22;5.65;;;1.10;;
78610;SDS011;67932;50.474;4.436;2023-04-25T14:08:51;2.80;;;1.23;;
78610;SDS011;67932;50.474;4.436;2023-04-25T14:11:18;4.43;;;1.48;;
78610;SDS011;67932;50.474;4.436;2023-04-25T14:13:57;4.13;;;1.80;;
78610;SDS011;67932;50.474;4.436;2023-04-25T14:16:23;2.83;;;1.05;;
78610;SDS011;67932;50.474;4.436;2023-04-25T14:21:46;3.35;;;1.40;;
78610;SDS011;67932;50.474;4.436;2023-04-25T14:24:13;3.67;;;0.90;;
78610;SDS011;67932;50.474;4.436;2023-04-25T14:26:39;4.13;;;1.92;;
78610;SDS011;67932;50.474;4.436;2023-04-25T14:29:05;2.35;;;1.10;;
78610;SDS011;67932;50.474;4.436;2023-04-25T14:31:32;3.80;;;1.38;;
78610;SDS011;67932;50.474;4.436;2023-04-25T14:33:59;2.60;;;1.10;;
78610;SDS011;67932;50.474;4.436;2023-04-25T14:36:25;5.72;;;1.65;;
78610;SDS011;67932;50.474;4.436;2023-04-25T14:38:51;3.78;;;1.40;;
78610;SDS011;67932;50.474;4.436;2023-04-25T14:41:17;2.40;;;1.05;;
78610;SDS011;67932;50.474;4.436;2023-04-25T14:43:43;4.80;;;1.42;;
78610;SDS011;67932;50.474;4.436;2023-04-25T14:46:10;2.00;;;0.90;;
78610;SDS011;67932;50.474;4.436;2023-04-25T14:48:36;2.53;;;0.90;;
78610;SDS011;67932;50.474;4.436;2023-04-25T14:51:03;1.20;;;0.90;;
78610;SDS011;67932;50.474;4.436;2023-04-25T14:53:30;2.40;;;1.33;;
78610;SDS011;67932;50.474;4.436;2023-04-25T14:55:57;2.65;;;0.77;;